AirNav   Bose Proflight Series 2 Wireless Aviation Headset
 
 1026 users online  

79PN Geisinger Rooftop Heliport
Danville, Pennsylvania, USA

GOING TO DANVILLE?


FAA INFORMATION EFFECTIVE 07 NOVEMBER 2019

Location

FAA Identifier: 79PN
Lat/Long: 40-58-04.4076N 076-36-20.5956W
40-58.073460N 076-36.343260W
40.9678910,-76.6057210
(estimated)
Elevation: 673.9 ft. / 205 m (estimated)
Variation: 12W (2005)
Time zone: UTC -5 (UTC -4 during Daylight Saving Time)
Zip code: 17821

Heliport Operations

Heliport use: Private use. Permission required prior to landing
Activation date: 02/1982
Control tower: no
ARTCC: NEW YORK CENTER
FSS: WILLIAMSPORT FLIGHT SERVICE STATION
NOTAMs facility: FDC (NOTAM-D service not available)
Attendance: CONTINUOUS
Wind indicator: lighted
Segmented circle: no

Heliport Communications

UNICOM: 123.05
WX AWOS-3: 118.075 (570-271-8192)
WILKES-BARRE APPROACH: 126.3
WILKES-BARRE DEPARTURE: 126.3
HERUB DP: 120.95
MUDDR DP: 126.3
WX AWOS-3 at N79 (8 nm S): 119.175 (570-672-0389)
WX ASOS at SEG (15 nm SW): 123.975 (570-374-4099)
WX AWOS-3 at ZER (19 nm SE): 127.575 (570-544-2778)

Nearby radio navigation aids

VOR radial/distance  VOR name  Freq  Var
MIPr150/4.3MILTON VORTAC109.2009W
SEGr058/16.5SELINSGROVE VOR/DME110.4008W
FQMr170/23.5WILLIAMSPORT VOR/DME114.4009W
RAVr010/24.9RAVINE VORTAC114.6011W

 
NDB name  Hdg/Dist  Freq  Var  ID
BELLGROVE006/32.032810WBZJ -... --.. .---

Heliport Services

Runway Information

Helipad H1

Dimensions: 60 x 50 ft. / 18 x 15 m
Surface: ROOF/TOP, in fair condition
ALUMINUM SURFACE, ROOFTOP FACILITY.
Latitude: 40-58.073460N
Longitude: 076-36.343260W
Elevation: 673.9 ft.
Traffic pattern: leftleft
Markings: none, in fair condition

Heliport Ownership and Management from official FAA records

Ownership: Privately-owned
Owner: GEISINGER MEDICAL CENTER
100 NORTH ACADEMY DRIVE
DANVILLE, PA 17822
Phone 570-271-5120
Manager: RICHARD SMITH
GEISINGER MEDICAL CENTER, 100 NORTH ACADEMY DRIVE
DANVILLE, PA 17822-2005
Phone 570-271-5124

Additional Remarks

FOR CD CTC WILKES-BARRE APCH AT 570-655-2084.

Instrument Procedures

There are no published instrument procedures at 79PN.

Some nearby airports with instrument procedures:

8N8 - Danville Airport (2 nm SW)
N13 - Bloomsburg Municipal Airport (8 nm E)
N79 - Northumberland County Airport (8 nm S)
KSEG - Penn Valley Airport (15 nm SW)
KZER - Schuylkill County/Joe Zerbey Airport (19 nm SE)
 
Loc | Ops | Rwys | IFR | FBO | Links
Com | Nav | Svcs | Stats | Notes
Area around 79PN (Geisinger Rooftop Heliport)
 
Road maps at: MapQuest Bing Google
 
Aerial photo
WARNING: Photo may not be current or correct
Aerial photo of 79PN (Geisinger Rooftop Heliport)
Taken in 2008

Do you have a better or more recent aerial photo of Geisinger Rooftop Heliport that you would like to share? If so, please send us your photo.

 
Sectional chart

 
Airport distance calculator
Flying to Geisinger Rooftop Heliport? Find the distance to fly.

From to 79PN

Sunrise and sunset
Times for 17-Nov-2019
 Local
(UTC-5)
 Zulu
(UTC)
Morning civil twilight06:2811:28
Sunrise06:5711:57
Sunset16:4621:46
Evening civil twilight17:1522:15

Current date and time
Zulu (UTC)  18-Nov-2019 01:10:17
Local (UTC-5)  17-Nov-2019 20:10:17
 
METAR
KSEG 
15nm SW 
180053Z AUTO 00000KT 10SM BKN028 OVC039 03/00 A3011 RMK AO2 SLP200 T00280000
KIPT 
22nm NW 
180054Z 09006KT 10SM OVC028 04/M02 A3010 RMK AO2 SLP197 T00391017 $
KHZL 
28nm E 
180055Z AUTO 09003KT 7SM SCT016 OVC027 00/M01 A3010 RMK AO2
TAF
KIPT 
22nm NW 
172359Z 1800/1824 VRB03KT P6SM OVC030 TEMPO 1800/1804 OVC035 FM181700 VRB02KT P6SM BKN035 OVC150
NOTAMs
Click for the latest NOTAMs
NOTAMs are issued by the DoD/FAA and will open in a separate window not controlled by AirNav.

 

 
 

Would you like to see your business listed on this page?

 If your business provides an interesting product or service to pilots, flight crews, aircraft, or users of the Geisinger Rooftop Heliport, you should consider listing it here.  To start the listing process, click on the button below
 
Add a business
 

Other Pages about Geisinger Rooftop Heliport

Update a link
 
Copyright © AirNav, LLC. All rights reserved. Privacy Policy  Contact